sensor_id;sensor_type;location;lat;lon;timestamp;P1;durP1;ratioP1;P2;durP2;ratioP2
71048;SDS011;58704;53.358;-6.238;2023-04-06T00:00:32;8.65;;;2.33;;
71048;SDS011;58704;53.358;-6.238;2023-04-06T00:02:57;10.73;;;2.57;;
71048;SDS011;58704;53.358;-6.238;2023-04-06T00:05:23;6.23;;;2.53;;
71048;SDS011;58704;53.358;-6.238;2023-04-06T00:07:48;10.07;;;2.30;;
71048;SDS011;58704;53.358;-6.238;2023-04-06T00:10:14;7.07;;;2.20;;
71048;SDS011;58704;53.358;-6.238;2023-04-06T00:12:40;9.77;;;2.30;;
71048;SDS011;58704;53.358;-6.238;2023-04-06T00:15:06;8.73;;;2.10;;
71048;SDS011;58704;53.358;-6.238;2023-04-06T00:17:32;8.32;;;2.53;;
71048;SDS011;58704;53.358;-6.238;2023-04-06T00:19:57;6.20;;;2.10;;
71048;SDS011;58704;53.358;-6.238;2023-04-06T00:22:22;11.33;;;1.83;;
71048;SDS011;58704;53.358;-6.238;2023-04-06T00:24:48;7.67;;;2.00;;
71048;SDS011;58704;53.358;-6.238;2023-04-06T00:27:13;9.03;;;2.50;;
71048;SDS011;58704;53.358;-6.238;2023-04-06T00:29:39;8.75;;;2.70;;
71048;SDS011;58704;53.358;-6.238;2023-04-06T00:32:05;6.27;;;2.37;;
71048;SDS011;58704;53.358;-6.238;2023-04-06T00:34:31;14.30;;;2.72;;
71048;SDS011;58704;53.358;-6.238;2023-04-06T00:36:56;6.57;;;2.35;;
71048;SDS011;58704;53.358;-6.238;2023-04-06T00:39:24;11.10;;;2.80;;
71048;SDS011;58704;53.358;-6.238;2023-04-06T00:41:51;11.20;;;2.75;;
71048;SDS011;58704;53.358;-6.238;2023-04-06T00:44:17;13.40;;;3.55;;
71048;SDS011;58704;53.358;-6.238;2023-04-06T00:46:43;15.37;;;2.27;;
71048;SDS011;58704;53.358;-6.238;2023-04-06T00:49:09;7.30;;;2.08;;
71048;SDS011;58704;53.358;-6.238;2023-04-06T00:51:34;4.43;;;2.10;;
71048;SDS011;58704;53.358;-6.238;2023-04-06T00:54:00;8.50;;;2.42;;
71048;SDS011;58704;53.358;-6.238;2023-04-06T00:56:25;9.87;;;1.97;;
71048;SDS011;58704;53.358;-6.238;2023-04-06T00:58:51;9.30;;;2.67;;
71048;SDS011;58704;53.358;-6.238;2023-04-06T01:01:17;11.48;;;2.60;;
71048;SDS011;58704;53.358;-6.238;2023-04-06T01:03:42;6.77;;;2.20;;
71048;SDS011;58704;53.358;-6.238;2023-04-06T01:06:09;9.40;;;2.72;;
71048;SDS011;58704;53.358;-6.238;2023-04-06T01:08:35;10.47;;;2.30;;
71048;SDS011;58704;53.358;-6.238;2023-04-06T01:11:01;9.63;;;3.05;;
71048;SDS011;58704;53.358;-6.238;2023-04-06T01:13:26;10.95;;;2.40;;
71048;SDS011;58704;53.358;-6.238;2023-04-06T01:15:52;7.03;;;2.23;;
71048;SDS011;58704;53.358;-6.238;2023-04-06T01:18:18;5.13;;;2.23;;
71048;SDS011;58704;53.358;-6.238;2023-04-06T01:20:43;5.35;;;2.22;;
71048;SDS011;58704;53.358;-6.238;2023-04-06T01:23:08;6.80;;;1.90;;
71048;SDS011;58704;53.358;-6.238;2023-04-06T01:25:34;11.07;;;2.17;;
71048;SDS011;58704;53.358;-6.238;2023-04-06T01:27:59;11.77;;;2.75;;
71048;SDS011;58704;53.358;-6.238;2023-04-06T01:30:27;7.77;;;2.60;;
71048;SDS011;58704;53.358;-6.238;2023-04-06T01:32:53;8.45;;;2.40;;
71048;SDS011;58704;53.358;-6.238;2023-04-06T01:35:19;5.97;;;1.70;;
71048;SDS011;58704;53.358;-6.238;2023-04-06T01:37:44;11.50;;;2.03;;
71048;SDS011;58704;53.358;-6.238;2023-04-06T01:40:10;10.30;;;2.13;;
71048;SDS011;58704;53.358;-6.238;2023-04-06T01:42:36;10.63;;;2.50;;
71048;SDS011;58704;53.358;-6.238;2023-04-06T01:45:02;9.30;;;2.50;;
71048;SDS011;58704;53.358;-6.238;2023-04-06T01:47:27;10.65;;;2.05;;
71048;SDS011;58704;53.358;-6.238;2023-04-06T01:49:53;9.73;;;2.23;;
71048;SDS011;58704;53.358;-6.238;2023-04-06T01:52:18;7.73;;;2.50;;
71048;SDS011;58704;53.358;-6.238;2023-04-06T01:54:44;7.23;;;2.50;;
71048;SDS011;58704;53.358;-6.238;2023-04-06T01:57:10;12.85;;;2.00;;
71048;SDS011;58704;53.358;-6.238;2023-04-06T01:59:35;7.93;;;2.20;;
71048;SDS011;58704;53.358;-6.238;2023-04-06T02:02:01;6.53;;;1.92;;
71048;SDS011;58704;53.358;-6.238;2023-04-06T02:04:26;9.27;;;2.40;;
71048;SDS011;58704;53.358;-6.238;2023-04-06T02:06:51;11.33;;;2.23;;
71048;SDS011;58704;53.358;-6.238;2023-04-06T02:09:17;12.23;;;2.13;;
71048;SDS011;58704;53.358;-6.238;2023-04-06T02:11:42;7.53;;;2.40;;
71048;SDS011;58704;53.358;-6.238;2023-04-06T02:14:07;8.85;;;2.85;;
71048;SDS011;58704;53.358;-6.238;2023-04-06T02:16:33;6.70;;;2.07;;
71048;SDS011;58704;53.358;-6.238;2023-04-06T02:18:58;8.80;;;2.10;;
71048;SDS011;58704;53.358;-6.238;2023-04-06T02:21:24;9.13;;;2.23;;
71048;SDS011;58704;53.358;-6.238;2023-04-06T02:23:49;11.43;;;2.53;;
71048;SDS011;58704;53.358;-6.238;2023-04-06T02:26:14;8.40;;;2.03;;
71048;SDS011;58704;53.358;-6.238;2023-04-06T02:28:40;12.43;;;2.60;;
71048;SDS011;58704;53.358;-6.238;2023-04-06T02:31:06;13.25;;;2.60;;
71048;SDS011;58704;53.358;-6.238;2023-04-06T02:33:32;9.48;;;2.42;;
71048;SDS011;58704;53.358;-6.238;2023-04-06T02:35:57;9.90;;;2.30;;
71048;SDS011;58704;53.358;-6.238;2023-04-06T02:38:23;10.50;;;2.30;;
71048;SDS011;58704;53.358;-6.238;2023-04-06T02:40:48;9.67;;;2.53;;
71048;SDS011;58704;53.358;-6.238;2023-04-06T02:43:13;6.43;;;2.60;;
71048;SDS011;58704;53.358;-6.238;2023-04-06T02:45:40;11.52;;;2.67;;
71048;SDS011;58704;53.358;-6.238;2023-04-06T02:48:05;7.47;;;2.17;;
71048;SDS011;58704;53.358;-6.238;2023-04-06T02:50:31;11.43;;;2.25;;
71048;SDS011;58704;53.358;-6.238;2023-04-06T02:52:56;13.97;;;3.20;;
71048;SDS011;58704;53.358;-6.238;2023-04-06T02:55:21;30.63;;;3.77;;
71048;SDS011;58704;53.358;-6.238;2023-04-06T02:57:47;16.50;;;2.80;;
71048;SDS011;58704;53.358;-6.238;2023-04-06T03:00:12;7.57;;;2.60;;
71048;SDS011;58704;53.358;-6.238;2023-04-06T03:02:38;12.48;;;2.35;;
71048;SDS011;58704;53.358;-6.238;2023-04-06T03:05:03;13.53;;;2.50;;
71048;SDS011;58704;53.358;-6.238;2023-04-06T03:07:29;9.73;;;2.50;;
71048;SDS011;58704;53.358;-6.238;2023-04-06T03:09:54;11.57;;;2.60;;
71048;SDS011;58704;53.358;-6.238;2023-04-06T03:12:20;9.30;;;2.37;;
71048;SDS011;58704;53.358;-6.238;2023-04-06T03:14:45;9.07;;;2.35;;
71048;SDS011;58704;53.358;-6.238;2023-04-06T03:17:11;11.57;;;2.43;;
71048;SDS011;58704;53.358;-6.238;2023-04-06T03:19:36;14.90;;;2.97;;
71048;SDS011;58704;53.358;-6.238;2023-04-06T03:22:01;11.80;;;2.93;;
71048;SDS011;58704;53.358;-6.238;2023-04-06T03:24:27;11.00;;;2.70;;
71048;SDS011;58704;53.358;-6.238;2023-04-06T03:26:52;7.45;;;2.22;;
71048;SDS011;58704;53.358;-6.238;2023-04-06T03:29:18;11.33;;;2.93;;
71048;SDS011;58704;53.358;-6.238;2023-04-06T03:31:43;14.83;;;2.30;;
71048;SDS011;58704;53.358;-6.238;2023-04-06T03:34:08;15.83;;;3.20;;
71048;SDS011;58704;53.358;-6.238;2023-04-06T03:36:34;11.47;;;3.63;;
71048;SDS011;58704;53.358;-6.238;2023-04-06T03:39:00;15.67;;;2.53;;
71048;SDS011;58704;53.358;-6.238;2023-04-06T03:41:25;10.43;;;2.37;;
71048;SDS011;58704;53.358;-6.238;2023-04-06T03:43:51;10.00;;;2.17;;
71048;SDS011;58704;53.358;-6.238;2023-04-06T03:46:16;10.00;;;2.20;;
71048;SDS011;58704;53.358;-6.238;2023-04-06T03:48:45;8.90;;;2.27;;
71048;SDS011;58704;53.358;-6.238;2023-04-06T03:51:12;9.98;;;2.35;;
71048;SDS011;58704;53.358;-6.238;2023-04-06T03:53:38;12.30;;;2.30;;
71048;SDS011;58704;53.358;-6.238;2023-04-06T03:56:03;10.35;;;2.67;;
71048;SDS011;58704;53.358;-6.238;2023-04-06T03:58:29;9.13;;;2.73;;
71048;SDS011;58704;53.358;-6.238;2023-04-06T04:00:55;11.88;;;2.70;;
71048;SDS011;58704;53.358;-6.238;2023-04-06T04:03:20;15.07;;;3.30;;
71048;SDS011;58704;53.358;-6.238;2023-04-06T04:05:48;8.95;;;3.00;;
71048;SDS011;58704;53.358;-6.238;2023-04-06T04:08:14;8.20;;;2.30;;
71048;SDS011;58704;53.358;-6.238;2023-04-06T04:10:39;12.20;;;2.88;;
71048;SDS011;58704;53.358;-6.238;2023-04-06T04:13:05;12.67;;;3.17;;
71048;SDS011;58704;53.358;-6.238;2023-04-06T04:15:30;12.30;;;2.87;;
71048;SDS011;58704;53.358;-6.238;2023-04-06T04:17:55;11.47;;;2.60;;
71048;SDS011;58704;53.358;-6.238;2023-04-06T04:20:21;11.52;;;2.80;;
71048;SDS011;58704;53.358;-6.238;2023-04-06T04:22:46;6.60;;;2.10;;
71048;SDS011;58704;53.358;-6.238;2023-04-06T04:25:12;14.63;;;3.53;;
71048;SDS011;58704;53.358;-6.238;2023-04-06T04:27:38;9.77;;;2.20;;
71048;SDS011;58704;53.358;-6.238;2023-04-06T04:30:04;6.03;;;1.87;;
71048;SDS011;58704;53.358;-6.238;2023-04-06T04:32:30;8.02;;;2.25;;
71048;SDS011;58704;53.358;-6.238;2023-04-06T04:34:56;9.85;;;3.53;;
71048;SDS011;58704;53.358;-6.238;2023-04-06T04:37:21;9.70;;;2.30;;
71048;SDS011;58704;53.358;-6.238;2023-04-06T04:39:47;7.50;;;2.23;;
71048;SDS011;58704;53.358;-6.238;2023-04-06T04:42:12;12.67;;;2.50;;
71048;SDS011;58704;53.358;-6.238;2023-04-06T04:44:37;16.50;;;2.85;;
71048;SDS011;58704;53.358;-6.238;2023-04-06T04:47:03;9.73;;;2.03;;
71048;SDS011;58704;53.358;-6.238;2023-04-06T04:49:28;9.97;;;2.53;;
71048;SDS011;58704;53.358;-6.238;2023-04-06T04:51:54;7.30;;;1.93;;
71048;SDS011;58704;53.358;-6.238;2023-04-06T04:54:19;9.77;;;2.00;;
71048;SDS011;58704;53.358;-6.238;2023-04-06T04:56:45;13.17;;;2.03;;
71048;SDS011;58704;53.358;-6.238;2023-04-06T04:59:10;8.77;;;1.90;;
71048;SDS011;58704;53.358;-6.238;2023-04-06T05:01:36;10.75;;;2.33;;
71048;SDS011;58704;53.358;-6.238;2023-04-06T05:04:01;7.63;;;1.77;;
71048;SDS011;58704;53.358;-6.238;2023-04-06T05:06:26;9.13;;;2.30;;
71048;SDS011;58704;53.358;-6.238;2023-04-06T05:08:52;10.40;;;2.60;;
71048;SDS011;58704;53.358;-6.238;2023-04-06T05:11:17;12.10;;;2.30;;
71048;SDS011;58704;53.358;-6.238;2023-04-06T05:13:43;11.57;;;2.60;;
71048;SDS011;58704;53.358;-6.238;2023-04-06T05:16:08;9.03;;;2.30;;
71048;SDS011;58704;53.358;-6.238;2023-04-06T05:18:34;11.00;;;2.30;;
71048;SDS011;58704;53.358;-6.238;2023-04-06T05:20:59;9.55;;;1.80;;
71048;SDS011;58704;53.358;-6.238;2023-04-06T05:23:25;9.10;;;2.00;;
71048;SDS011;58704;53.358;-6.238;2023-04-06T05:25:51;10.48;;;1.77;;
71048;SDS011;58704;53.358;-6.238;2023-04-06T05:28:16;11.20;;;1.80;;
71048;SDS011;58704;53.358;-6.238;2023-04-06T05:30:42;7.17;;;1.80;;
71048;SDS011;58704;53.358;-6.238;2023-04-06T05:33:09;7.18;;;2.13;;
71048;SDS011;58704;53.358;-6.238;2023-04-06T05:35:35;7.75;;;2.65;;
71048;SDS011;58704;53.358;-6.238;2023-04-06T05:38:01;11.63;;;2.33;;
71048;SDS011;58704;53.358;-6.238;2023-04-06T05:40:26;9.77;;;2.33;;
71048;SDS011;58704;53.358;-6.238;2023-04-06T05:42:51;9.35;;;2.50;;
71048;SDS011;58704;53.358;-6.238;2023-04-06T05:45:17;10.73;;;2.23;;
71048;SDS011;58704;53.358;-6.238;2023-04-06T05:47:43;10.23;;;2.50;;
71048;SDS011;58704;53.358;-6.238;2023-04-06T05:50:09;9.77;;;3.10;;
71048;SDS011;58704;53.358;-6.238;2023-04-06T05:52:35;10.63;;;2.63;;
71048;SDS011;58704;53.358;-6.238;2023-04-06T05:55:01;12.38;;;2.63;;
71048;SDS011;58704;53.358;-6.238;2023-04-06T05:57:27;12.35;;;2.88;;
71048;SDS011;58704;53.358;-6.238;2023-04-06T05:59:53;12.13;;;3.07;;
71048;SDS011;58704;53.358;-6.238;2023-04-06T06:02:18;12.47;;;2.73;;
71048;SDS011;58704;53.358;-6.238;2023-04-06T06:04:44;15.02;;;2.50;;
71048;SDS011;58704;53.358;-6.238;2023-04-06T06:07:09;7.03;;;2.63;;
71048;SDS011;58704;53.358;-6.238;2023-04-06T06:09:35;6.93;;;2.37;;
71048;SDS011;58704;53.358;-6.238;2023-04-06T06:12:00;13.83;;;2.90;;
71048;SDS011;58704;53.358;-6.238;2023-04-06T06:14:25;8.70;;;2.63;;
71048;SDS011;58704;53.358;-6.238;2023-04-06T06:16:53;9.67;;;2.67;;
71048;SDS011;58704;53.358;-6.238;2023-04-06T06:19:21;8.73;;;2.75;;
71048;SDS011;58704;53.358;-6.238;2023-04-06T06:21:46;7.93;;;2.57;;
71048;SDS011;58704;53.358;-6.238;2023-04-06T06:24:13;10.48;;;2.95;;
71048;SDS011;58704;53.358;-6.238;2023-04-06T06:26:38;11.70;;;3.23;;
71048;SDS011;58704;53.358;-6.238;2023-04-06T06:29:04;12.60;;;3.25;;
71048;SDS011;58704;53.358;-6.238;2023-04-06T06:31:30;16.85;;;3.53;;
71048;SDS011;58704;53.358;-6.238;2023-04-06T06:33:56;14.00;;;3.07;;
71048;SDS011;58704;53.358;-6.238;2023-04-06T06:36:21;15.38;;;2.95;;
71048;SDS011;58704;53.358;-6.238;2023-04-06T06:38:47;8.23;;;2.43;;
71048;SDS011;58704;53.358;-6.238;2023-04-06T06:41:12;7.17;;;2.40;;
71048;SDS011;58704;53.358;-6.238;2023-04-06T06:43:38;11.25;;;3.10;;
71048;SDS011;58704;53.358;-6.238;2023-04-06T06:46:03;4.87;;;1.90;;
71048;SDS011;58704;53.358;-6.238;2023-04-06T06:48:29;9.15;;;2.63;;
71048;SDS011;58704;53.358;-6.238;2023-04-06T06:50:55;9.73;;;2.13;;
71048;SDS011;58704;53.358;-6.238;2023-04-06T06:53:21;9.68;;;2.40;;
71048;SDS011;58704;53.358;-6.238;2023-04-06T06:55:46;6.63;;;1.87;;
71048;SDS011;58704;53.358;-6.238;2023-04-06T06:58:13;9.13;;;2.45;;
71048;SDS011;58704;53.358;-6.238;2023-04-06T07:00:39;6.17;;;2.90;;
71048;SDS011;58704;53.358;-6.238;2023-04-06T07:03:04;10.20;;;2.42;;
71048;SDS011;58704;53.358;-6.238;2023-04-06T07:05:30;7.37;;;2.27;;
71048;SDS011;58704;53.358;-6.238;2023-04-06T07:07:55;8.07;;;2.00;;
71048;SDS011;58704;53.358;-6.238;2023-04-06T07:10:21;8.20;;;2.77;;
71048;SDS011;58704;53.358;-6.238;2023-04-06T07:12:46;10.48;;;2.75;;
71048;SDS011;58704;53.358;-6.238;2023-04-06T07:15:12;6.40;;;2.07;;
71048;SDS011;58704;53.358;-6.238;2023-04-06T07:17:37;7.53;;;3.17;;
71048;SDS011;58704;53.358;-6.238;2023-04-06T07:20:03;8.40;;;2.67;;
71048;SDS011;58704;53.358;-6.238;2023-04-06T07:22:29;9.27;;;2.40;;
71048;SDS011;58704;53.358;-6.238;2023-04-06T07:24:55;7.72;;;2.28;;
71048;SDS011;58704;53.358;-6.238;2023-04-06T07:27:21;9.27;;;2.47;;
71048;SDS011;58704;53.358;-6.238;2023-04-06T07:29:46;4.37;;;1.80;;
71048;SDS011;58704;53.358;-6.238;2023-04-06T07:32:12;3.90;;;1.67;;
71048;SDS011;58704;53.358;-6.238;2023-04-06T07:34:37;6.15;;;1.77;;
71048;SDS011;58704;53.358;-6.238;2023-04-06T07:37:03;6.30;;;2.43;;
71048;SDS011;58704;53.358;-6.238;2023-04-06T07:39:28;7.70;;;1.60;;
71048;SDS011;58704;53.358;-6.238;2023-04-06T07:41:54;4.72;;;1.80;;
71048;SDS011;58704;53.358;-6.238;2023-04-06T07:44:20;5.73;;;2.07;;
71048;SDS011;58704;53.358;-6.238;2023-04-06T07:46:45;6.10;;;2.07;;
71048;SDS011;58704;53.358;-6.238;2023-04-06T07:49:10;6.20;;;2.13;;
71048;SDS011;58704;53.358;-6.238;2023-04-06T07:51:37;6.63;;;2.33;;
71048;SDS011;58704;53.358;-6.238;2023-04-06T07:54:02;9.00;;;2.60;;
71048;SDS011;58704;53.358;-6.238;2023-04-06T07:56:28;8.00;;;2.00;;
71048;SDS011;58704;53.358;-6.238;2023-04-06T07:58:53;4.60;;;1.97;;
71048;SDS011;58704;53.358;-6.238;2023-04-06T08:01:21;7.20;;;2.20;;
71048;SDS011;58704;53.358;-6.238;2023-04-06T08:03:46;8.20;;;2.73;;
71048;SDS011;58704;53.358;-6.238;2023-04-06T08:06:12;7.10;;;2.40;;
71048;SDS011;58704;53.358;-6.238;2023-04-06T08:08:37;8.30;;;2.25;;
71048;SDS011;58704;53.358;-6.238;2023-04-06T08:11:03;5.00;;;2.00;;
71048;SDS011;58704;53.358;-6.238;2023-04-06T08:13:28;5.10;;;2.30;;
71048;SDS011;58704;53.358;-6.238;2023-04-06T08:15:54;6.20;;;2.13;;
71048;SDS011;58704;53.358;-6.238;2023-04-06T08:18:19;6.53;;;2.75;;
71048;SDS011;58704;53.358;-6.238;2023-04-06T08:20:45;6.60;;;1.90;;
71048;SDS011;58704;53.358;-6.238;2023-04-06T08:23:10;7.90;;;1.90;;
71048;SDS011;58704;53.358;-6.238;2023-04-06T08:25:36;3.73;;;1.90;;
71048;SDS011;58704;53.358;-6.238;2023-04-06T08:28:02;11.03;;;2.27;;
71048;SDS011;58704;53.358;-6.238;2023-04-06T08:30:30;8.25;;;1.85;;
71048;SDS011;58704;53.358;-6.238;2023-04-06T08:32:55;6.32;;;2.40;;
71048;SDS011;58704;53.358;-6.238;2023-04-06T08:35:21;5.23;;;2.20;;
71048;SDS011;58704;53.358;-6.238;2023-04-06T08:37:47;8.03;;;2.03;;
71048;SDS011;58704;53.358;-6.238;2023-04-06T08:40:12;6.28;;;2.15;;
71048;SDS011;58704;53.358;-6.238;2023-04-06T08:42:43;7.23;;;2.30;;
71048;SDS011;58704;53.358;-6.238;2023-04-06T08:45:10;7.43;;;2.10;;
71048;SDS011;58704;53.358;-6.238;2023-04-06T08:47:36;5.87;;;2.00;;
71048;SDS011;58704;53.358;-6.238;2023-04-06T08:50:05;10.40;;;2.65;;
71048;SDS011;58704;53.358;-6.238;2023-04-06T08:52:31;8.10;;;2.35;;
71048;SDS011;58704;53.358;-6.238;2023-04-06T08:54:57;4.57;;;2.10;;
71048;SDS011;58704;53.358;-6.238;2023-04-06T08:57:23;7.13;;;2.20;;
71048;SDS011;58704;53.358;-6.238;2023-04-06T08:59:49;8.88;;;2.25;;
71048;SDS011;58704;53.358;-6.238;2023-04-06T09:02:16;15.17;;;3.03;;
71048;SDS011;58704;53.358;-6.238;2023-04-06T09:04:43;7.32;;;2.17;;
71048;SDS011;58704;53.358;-6.238;2023-04-06T09:07:11;5.30;;;1.90;;
71048;SDS011;58704;53.358;-6.238;2023-04-06T09:09:36;12.13;;;2.20;;
71048;SDS011;58704;53.358;-6.238;2023-04-06T09:12:02;8.23;;;1.80;;
71048;SDS011;58704;53.358;-6.238;2023-04-06T09:14:37;11.50;;;2.00;;
71048;SDS011;58704;53.358;-6.238;2023-04-06T09:17:03;11.33;;;2.70;;
71048;SDS011;58704;53.358;-6.238;2023-04-06T09:19:30;7.20;;;2.10;;
71048;SDS011;58704;53.358;-6.238;2023-04-06T09:22:14;13.53;;;3.00;;
71048;SDS011;58704;53.358;-6.238;2023-04-06T09:24:50;4.35;;;1.70;;
71048;SDS011;58704;53.358;-6.238;2023-04-06T09:27:16;8.30;;;1.80;;
71048;SDS011;58704;53.358;-6.238;2023-04-06T09:29:42;11.47;;;2.47;;
71048;SDS011;58704;53.358;-6.238;2023-04-06T09:32:08;6.38;;;1.85;;
71048;SDS011;58704;53.358;-6.238;2023-04-06T09:34:41;8.55;;;1.80;;
71048;SDS011;58704;53.358;-6.238;2023-04-06T09:37:13;5.57;;;2.00;;
71048;SDS011;58704;53.358;-6.238;2023-04-06T09:39:39;6.78;;;2.40;;
71048;SDS011;58704;53.358;-6.238;2023-04-06T09:42:05;5.82;;;2.28;;
71048;SDS011;58704;53.358;-6.238;2023-04-06T09:44:30;5.53;;;2.40;;
71048;SDS011;58704;53.358;-6.238;2023-04-06T09:46:56;10.23;;;2.70;;
71048;SDS011;58704;53.358;-6.238;2023-04-06T09:49:21;8.90;;;2.47;;
71048;SDS011;58704;53.358;-6.238;2023-04-06T09:51:55;8.30;;;2.63;;
71048;SDS011;58704;53.358;-6.238;2023-04-06T09:54:22;10.90;;;2.72;;
71048;SDS011;58704;53.358;-6.238;2023-04-06T09:56:56;6.75;;;2.60;;
71048;SDS011;58704;53.358;-6.238;2023-04-06T09:59:33;5.47;;;1.98;;
71048;SDS011;58704;53.358;-6.238;2023-04-06T10:02:08;6.77;;;2.10;;
71048;SDS011;58704;53.358;-6.238;2023-04-06T10:04:47;6.20;;;2.05;;
71048;SDS011;58704;53.358;-6.238;2023-04-06T10:07:19;13.95;;;2.33;;
71048;SDS011;58704;53.358;-6.238;2023-04-06T10:09:45;6.35;;;1.60;;
71048;SDS011;58704;53.358;-6.238;2023-04-06T10:12:11;3.43;;;1.60;;
71048;SDS011;58704;53.358;-6.238;2023-04-06T10:14:37;6.80;;;1.90;;
71048;SDS011;58704;53.358;-6.238;2023-04-06T10:17:04;5.55;;;1.60;;
71048;SDS011;58704;53.358;-6.238;2023-04-06T10:19:41;8.48;;;1.70;;
71048;SDS011;58704;53.358;-6.238;2023-04-06T10:22:12;3.80;;;1.50;;
71048;SDS011;58704;53.358;-6.238;2023-04-06T10:24:43;8.15;;;1.60;;
71048;SDS011;58704;53.358;-6.238;2023-04-06T10:27:08;5.87;;;1.77;;
71048;SDS011;58704;53.358;-6.238;2023-04-06T10:29:46;5.72;;;2.03;;
71048;SDS011;58704;53.358;-6.238;2023-04-06T10:32:13;8.40;;;1.85;;
71048;SDS011;58704;53.358;-6.238;2023-04-06T10:34:39;5.93;;;1.50;;
71048;SDS011;58704;53.358;-6.238;2023-04-06T10:37:14;5.28;;;1.60;;
71048;SDS011;58704;53.358;-6.238;2023-04-06T10:39:53;2.03;;;1.35;;
71048;SDS011;58704;53.358;-6.238;2023-04-06T10:42:38;6.60;;;1.53;;
71048;SDS011;58704;53.358;-6.238;2023-04-06T10:45:05;4.65;;;1.52;;
71048;SDS011;58704;53.358;-6.238;2023-04-06T10:47:39;3.60;;;1.48;;
71048;SDS011;58704;53.358;-6.238;2023-04-06T10:50:05;6.43;;;1.77;;
71048;SDS011;58704;53.358;-6.238;2023-04-06T10:52:31;7.37;;;2.00;;
71048;SDS011;58704;53.358;-6.238;2023-04-06T10:54:56;7.10;;;1.97;;
71048;SDS011;58704;53.358;-6.238;2023-04-06T10:57:28;4.87;;;1.67;;
71048;SDS011;58704;53.358;-6.238;2023-04-06T10:59:55;7.53;;;1.70;;
71048;SDS011;58704;53.358;-6.238;2023-04-06T11:02:21;5.30;;;1.20;;
71048;SDS011;58704;53.358;-6.238;2023-04-06T11:04:56;4.47;;;1.25;;
71048;SDS011;58704;53.358;-6.238;2023-04-06T11:07:26;7.57;;;1.70;;
71048;SDS011;58704;53.358;-6.238;2023-04-06T11:09:52;8.73;;;2.03;;
71048;SDS011;58704;53.358;-6.238;2023-04-06T11:12:25;4.53;;;1.60;;
71048;SDS011;58704;53.358;-6.238;2023-04-06T11:14:59;7.25;;;1.75;;
71048;SDS011;58704;53.358;-6.238;2023-04-06T11:17:32;4.72;;;1.40;;
71048;SDS011;58704;53.358;-6.238;2023-04-06T11:19:58;4.47;;;1.65;;
71048;SDS011;58704;53.358;-6.238;2023-04-06T11:22:24;6.97;;;1.57;;
71048;SDS011;58704;53.358;-6.238;2023-04-06T11:24:50;5.05;;;1.60;;
71048;SDS011;58704;53.358;-6.238;2023-04-06T11:27:16;5.27;;;1.70;;
71048;SDS011;58704;53.358;-6.238;2023-04-06T11:29:42;4.82;;;1.65;;
71048;SDS011;58704;53.358;-6.238;2023-04-06T11:32:08;5.43;;;1.50;;
71048;SDS011;58704;53.358;-6.238;2023-04-06T11:34:34;3.23;;;1.57;;
71048;SDS011;58704;53.358;-6.238;2023-04-06T11:37:02;2.72;;;1.60;;
71048;SDS011;58704;53.358;-6.238;2023-04-06T11:39:32;7.63;;;1.75;;
71048;SDS011;58704;53.358;-6.238;2023-04-06T11:42:04;4.07;;;1.33;;
71048;SDS011;58704;53.358;-6.238;2023-04-06T11:44:33;8.82;;;1.52;;
71048;SDS011;58704;53.358;-6.238;2023-04-06T11:47:03;4.23;;;1.43;;
71048;SDS011;58704;53.358;-6.238;2023-04-06T11:49:30;5.88;;;1.83;;
71048;SDS011;58704;53.358;-6.238;2023-04-06T11:51:57;3.00;;;1.48;;
71048;SDS011;58704;53.358;-6.238;2023-04-06T11:54:33;4.70;;;1.17;;
71048;SDS011;58704;53.358;-6.238;2023-04-06T11:56:59;5.47;;;1.38;;
71048;SDS011;58704;53.358;-6.238;2023-04-06T11:59:25;5.77;;;1.50;;
71048;SDS011;58704;53.358;-6.238;2023-04-06T12:01:52;3.80;;;1.42;;
71048;SDS011;58704;53.358;-6.238;2023-04-06T12:04:18;4.30;;;1.50;;
71048;SDS011;58704;53.358;-6.238;2023-04-06T12:06:44;8.27;;;1.65;;
71048;SDS011;58704;53.358;-6.238;2023-04-06T12:09:09;4.80;;;1.60;;
71048;SDS011;58704;53.358;-6.238;2023-04-06T12:11:34;3.53;;;1.37;;
71048;SDS011;58704;53.358;-6.238;2023-04-06T12:14:00;7.60;;;1.50;;
71048;SDS011;58704;53.358;-6.238;2023-04-06T12:16:26;6.20;;;1.37;;
71048;SDS011;58704;53.358;-6.238;2023-04-06T12:18:52;2.75;;;1.13;;
71048;SDS011;58704;53.358;-6.238;2023-04-06T12:21:17;6.17;;;1.73;;
71048;SDS011;58704;53.358;-6.238;2023-04-06T12:23:42;3.10;;;1.30;;
71048;SDS011;58704;53.358;-6.238;2023-04-06T12:26:08;3.83;;;1.93;;
71048;SDS011;58704;53.358;-6.238;2023-04-06T12:28:33;4.10;;;1.38;;
71048;SDS011;58704;53.358;-6.238;2023-04-06T12:30:59;7.67;;;1.87;;
71048;SDS011;58704;53.358;-6.238;2023-04-06T12:33:24;5.17;;;1.87;;
71048;SDS011;58704;53.358;-6.238;2023-04-06T12:35:50;3.00;;;1.45;;
71048;SDS011;58704;53.358;-6.238;2023-04-06T12:38:15;5.93;;;1.77;;
71048;SDS011;58704;53.358;-6.238;2023-04-06T12:40:41;4.57;;;1.57;;
71048;SDS011;58704;53.358;-6.238;2023-04-06T12:43:06;4.07;;;1.80;;
71048;SDS011;58704;53.358;-6.238;2023-04-06T12:45:34;6.18;;;1.70;;
71048;SDS011;58704;53.358;-6.238;2023-04-06T12:48:00;2.03;;;1.65;;
71048;SDS011;58704;53.358;-6.238;2023-04-06T12:50:26;3.27;;;1.60;;
71048;SDS011;58704;53.358;-6.238;2023-04-06T12:52:52;5.22;;;1.60;;
71048;SDS011;58704;53.358;-6.238;2023-04-06T12:55:17;6.57;;;1.70;;
71048;SDS011;58704;53.358;-6.238;2023-04-06T12:57:42;2.67;;;1.43;;
71048;SDS011;58704;53.358;-6.238;2023-04-06T13:00:08;4.03;;;1.70;;
71048;SDS011;58704;53.358;-6.238;2023-04-06T13:02:33;3.58;;;1.98;;
71048;SDS011;58704;53.358;-6.238;2023-04-06T13:04:59;3.67;;;1.57;;
71048;SDS011;58704;53.358;-6.238;2023-04-06T13:07:25;3.63;;;1.80;;
71048;SDS011;58704;53.358;-6.238;2023-04-06T13:09:50;5.07;;;1.60;;
71048;SDS011;58704;53.358;-6.238;2023-04-06T13:12:16;3.25;;;1.10;;
71048;SDS011;58704;53.358;-6.238;2023-04-06T13:14:41;5.60;;;1.40;;
71048;SDS011;58704;53.358;-6.238;2023-04-06T13:17:08;1.83;;;1.50;;
71048;SDS011;58704;53.358;-6.238;2023-04-06T13:19:33;4.32;;;1.40;;
71048;SDS011;58704;53.358;-6.238;2023-04-06T13:21:59;4.40;;;1.20;;
71048;SDS011;58704;53.358;-6.238;2023-04-06T13:24:24;3.95;;;1.23;;
71048;SDS011;58704;53.358;-6.238;2023-04-06T13:26:50;1.77;;;1.10;;
71048;SDS011;58704;53.358;-6.238;2023-04-06T13:29:15;3.33;;;1.33;;
71048;SDS011;58704;53.358;-6.238;2023-04-06T13:31:40;3.87;;;1.27;;
71048;SDS011;58704;53.358;-6.238;2023-04-06T13:34:06;3.55;;;1.58;;
71048;SDS011;58704;53.358;-6.238;2023-04-06T13:36:31;3.93;;;1.50;;
71048;SDS011;58704;53.358;-6.238;2023-04-06T13:38:57;3.77;;;1.40;;
71048;SDS011;58704;53.358;-6.238;2023-04-06T13:41:24;5.50;;;1.25;;
71048;SDS011;58704;53.358;-6.238;2023-04-06T13:43:51;5.20;;;2.60;;
71048;SDS011;58704;53.358;-6.238;2023-04-06T13:46:17;4.93;;;1.47;;
71048;SDS011;58704;53.358;-6.238;2023-04-06T13:48:43;3.75;;;1.48;;
71048;SDS011;58704;53.358;-6.238;2023-04-06T13:51:12;3.87;;;1.10;;
71048;SDS011;58704;53.358;-6.238;2023-04-06T13:53:38;3.75;;;1.83;;
71048;SDS011;58704;53.358;-6.238;2023-04-06T13:56:04;3.67;;;1.48;;
71048;SDS011;58704;53.358;-6.238;2023-04-06T13:58:30;5.20;;;1.67;;
71048;SDS011;58704;53.358;-6.238;2023-04-06T14:01:01;3.73;;;1.30;;
71048;SDS011;58704;53.358;-6.238;2023-04-06T14:03:31;4.68;;;0.95;;
71048;SDS011;58704;53.358;-6.238;2023-04-06T14:05:56;3.27;;;1.30;;
71048;SDS011;58704;53.358;-6.238;2023-04-06T14:08:22;1.92;;;1.33;;
71048;SDS011;58704;53.358;-6.238;2023-04-06T14:10:47;1.63;;;1.10;;
71048;SDS011;58704;53.358;-6.238;2023-04-06T14:13:12;3.40;;;1.20;;
71048;SDS011;58704;53.358;-6.238;2023-04-06T14:15:38;2.13;;;0.97;;
71048;SDS011;58704;53.358;-6.238;2023-04-06T14:18:03;5.80;;;1.30;;
71048;SDS011;58704;53.358;-6.238;2023-04-06T14:20:32;2.63;;;1.13;;
71048;SDS011;58704;53.358;-6.238;2023-04-06T14:22:59;2.80;;;1.33;;
71048;SDS011;58704;53.358;-6.238;2023-04-06T14:25:26;4.57;;;1.35;;